Time;durP1;ratioP1;P1;durP2;ratioP2;P2;SDS_P1;SDS_P2;PMS_P1;PMS_P2;Temp;Humidity;BMP_temperature;BMP_pressure;BME280_temperature;BME280_humidity;BME280_pressure;Samples;Min_cycle;Max_cycle;Signal;HPM_P1;HPM_P2
2022/09/09 00:02:04;;;;;;;14.02;3.83;;;27.90;99.90;;;;;;4991301;28;20058;-53
2022/09/09 00:04:35;;;;;;;14.80;4.13;;;27.90;99.90;;;;;;4993746;28;20165;-55
2022/09/09 00:07:16;;;;;;;14.65;4.85;;;27.80;99.90;;;;;;5000326;28;20091;-50
2022/09/09 00:09:51;;;;;;;17.10;4.88;;;27.70;99.90;;;;;;5015007;28;20095;-49
2022/09/09 00:12:27;;;;;;;16.42;5.32;;;27.60;99.90;;;;;;5001230;28;20030;-51
2022/09/09 00:15:08;;;;;;;17.30;4.10;;;27.60;99.90;;;;;;4986786;28;20026;-51
2022/09/09 00:17:58;;;;;;;12.30;3.80;;;27.60;99.90;;;;;;4988853;28;20110;-57
2022/09/09 00:20:24;;;;;;;9.18;3.67;;;27.50;99.90;;;;;;4955042;28;20069;-52
2022/09/09 00:23:06;;;;;;;16.30;4.75;;;27.50;99.90;;;;;;4989120;28;20441;-54
2022/09/09 00:25:42;;;;;;;13.18;4.82;;;27.40;99.90;;;;;;5006798;28;20056;-53
2022/09/09 00:28:20;;;;;;;8.52;3.53;;;27.40;99.90;;;;;;5014811;28;20038;-55
2022/09/09 00:30:49;;;;;;;15.02;3.67;;;27.30;99.90;;;;;;5014958;28;20501;-54
2022/09/09 00:33:21;;;;;;;8.85;3.15;;;27.30;99.90;;;;;;5014264;28;20485;-54
2022/09/09 00:35:56;;;;;;;15.23;3.25;;;27.20;99.90;;;;;;5014911;28;20038;-55
2022/09/09 00:38:41;;;;;;;12.25;3.28;;;27.20;99.90;;;;;;5014850;28;20030;-54
2022/09/09 00:41:15;;;;;;;13.25;3.50;;;27.20;99.90;;;;;;5014232;28;20022;-53
2022/09/09 00:43:42;;;;;;;15.88;6.00;;;27.20;99.90;;;;;;5008426;28;20150;-55
2022/09/09 00:46:26;;;;;;;10.55;3.17;;;27.10;99.90;;;;;;4988862;28;20038;-54
2022/09/09 00:48:59;;;;;;;12.55;3.42;;;27.10;99.90;;;;;;4994603;28;20482;-54
2022/09/09 00:51:46;;;;;;;16.40;7.90;;;27.00;99.90;;;;;;5012049;28;20029;-55
2022/09/09 00:54:39;;;;;;;13.27;6.10;;;27.00;99.90;;;;;;5003171;28;20464;-49
2022/09/09 00:57:29;;;;;;;16.20;6.10;;;27.00;99.90;;;;;;4999937;28;20260;-50
2022/09/09 01:00:17;;;;;;;18.38;4.65;;;27.00;99.90;;;;;;5014807;28;20085;-48
2022/09/09 01:03:07;;;;;;;16.65;3.47;;;27.00;99.90;;;;;;5013989;28;20054;-52
2022/09/09 01:05:33;;;;;;;17.55;4.07;;;27.00;99.90;;;;;;5014182;28;20026;-53
2022/09/09 01:08:02;;;;;;;21.80;3.95;;;27.00;99.90;;;;;;5014077;28;20425;-54
2022/09/09 01:10:47;;;;;;;11.18;3.10;;;26.90;99.90;;;;;;5012465;28;20030;-52
2022/09/09 01:13:34;;;;;;;5.43;2.50;;;26.90;99.90;;;;;;5013988;28;20034;-52
2022/09/09 01:16:05;;;;;;;13.50;2.22;;;26.90;99.90;;;;;;5013742;28;20045;-53
2022/09/09 01:18:52;;;;;;;13.95;2.40;;;26.90;99.90;;;;;;5013797;28;20429;-52
2022/09/09 01:21:37;;;;;;;12.70;2.60;;;26.90;99.90;;;;;;5000885;28;20058;-51
2022/09/09 01:24:26;;;;;;;13.68;2.60;;;26.90;99.90;;;;;;4989850;28;20022;-51
2022/09/09 01:26:57;;;;;;;12.52;3.03;;;26.90;99.90;;;;;;4994167;28;20117;-51
2022/09/09 01:29:23;;;;;;;14.43;2.85;;;26.90;99.90;;;;;;4989158;28;20035;-55
2022/09/09 01:31:58;;;;;;;8.95;2.85;;;26.90;99.90;;;;;;4972647;28;20474;-52
2022/09/09 01:34:27;;;;;;;11.95;3.33;;;26.90;99.90;;;;;;4972696;28;20026;-52
2022/09/09 01:37:06;;;;;;;8.65;2.63;;;26.90;99.90;;;;;;4972957;28;20146;-49
2022/09/09 01:39:34;;;;;;;12.82;3.42;;;26.90;99.90;;;;;;4990691;28;20029;-54
2022/09/09 01:42:01;;;;;;;9.00;2.80;;;26.80;99.90;;;;;;5013637;28;20030;-49
2022/09/09 01:44:28;;;;;;;7.95;2.13;;;26.80;99.90;;;;;;5013458;28;20029;-53
2022/09/09 01:46:53;;;;;;;12.75;1.80;;;26.80;99.90;;;;;;4997966;28;20482;-56
2022/09/09 01:49:19;;;;;;;11.07;2.45;;;26.80;99.90;;;;;;5005303;28;20033;-54
2022/09/09 01:51:50;;;;;;;7.55;2.33;;;26.80;99.90;;;;;;5010163;28;20061;-53
2022/09/09 01:54:16;;;;;;;8.68;2.08;;;26.80;99.90;;;;;;5013281;28;20053;-52
2022/09/09 01:57:04;;;;;;;9.77;2.25;;;26.90;99.90;;;;;;5000028;28;20022;-51
2022/09/09 01:59:44;;;;;;;10.10;3.17;;;26.80;99.90;;;;;;5010671;23;20060;-46
2022/09/09 02:02:18;;;;;;;13.38;3.50;;;26.90;99.90;;;;;;4974848;28;20498;-48
2022/09/09 02:04:50;;;;;;;10.77;2.67;;;26.80;99.90;;;;;;4993653;28;20031;-47
2022/09/09 02:07:22;;;;;;;11.48;2.60;;;26.70;99.90;;;;;;4993413;28;20073;-47
2022/09/09 02:09:57;;;;;;;11.23;2.58;;;26.60;99.90;;;;;;4978444;28;20027;-47
2022/09/09 02:12:25;;;;;;;7.95;2.72;;;26.50;99.90;;;;;;4993156;28;20053;-48
2022/09/09 02:15:07;;;;;;;12.68;3.25;;;26.50;99.90;;;;;;4992143;28;20158;-47
2022/09/09 02:17:38;;;;;;;10.05;2.53;;;26.40;99.90;;;;;;4993303;28;20034;-48
2022/09/09 02:20:12;;;;;;;15.10;3.42;;;26.40;99.90;;;;;;4993147;28;20014;-47
2022/09/09 02:22:42;;;;;;;18.17;2.55;;;26.30;99.90;;;;;;4993486;28;20130;-48
2022/09/09 02:25:12;;;;;;;11.43;2.15;;;26.30;99.90;;;;;;4992485;28;20366;-48
2022/09/09 02:27:41;;;;;;;2.55;1.15;;;26.40;99.90;;;;;;4992685;28;20030;-48
2022/09/09 02:30:08;;;;;;;7.63;1.67;;;26.50;99.90;;;;;;4992906;28;20108;-49
2022/09/09 02:32:35;;;;;;;12.47;3.63;;;26.60;99.90;;;;;;4992896;28;20102;-47
2022/09/09 02:35:10;;;;;;;10.05;2.20;;;26.60;99.90;;;;;;4992947;28;20034;-47
2022/09/09 02:37:39;;;;;;;9.60;3.00;;;26.60;99.90;;;;;;4967161;28;20538;-47
2022/09/09 02:40:07;;;;;;;12.15;2.38;;;26.70;99.90;;;;;;4970189;28;20481;-47
2022/09/09 02:42:43;;;;;;;6.88;1.98;;;26.60;99.90;;;;;;4979250;28;20034;-47
2022/09/09 02:45:12;;;;;;;7.25;2.95;;;26.50;99.90;;;;;;4988578;28;20019;-47
2022/09/09 02:47:41;;;;;;;8.60;3.28;;;26.50;99.90;;;;;;4982517;28;20038;-47
2022/09/09 02:50:17;;;;;;;7.90;1.63;;;26.60;99.90;;;;;;4978816;28;20018;-48
2022/09/09 02:53:10;;;;;;;4.07;1.15;;;26.60;99.90;;;;;;4992541;28;20510;-48
2022/09/09 02:55:42;;;;;;;4.60;1.40;;;26.70;99.90;;;;;;4966070;28;20022;-48
2022/09/09 02:58:12;;;;;;;5.70;1.48;;;26.80;99.90;;;;;;4992504;28;20030;-48
2022/09/09 03:00:39;;;;;;;9.32;1.70;;;26.80;99.90;;;;;;4999229;23;20596;-52
2022/09/09 03:03:06;;;;;;;7.18;1.42;;;26.90;99.90;;;;;;4992442;28;20022;-52
2022/09/09 03:05:32;;;;;;;8.57;2.70;;;27.00;99.90;;;;;;4992410;28;20031;-52
2022/09/09 03:07:58;;;;;;;6.55;1.98;;;27.00;99.90;;;;;;4992524;28;20558;-51
2022/09/09 03:10:24;;;;;;;16.90;2.65;;;27.00;99.90;;;;;;4991082;28;20398;-53
2022/09/09 03:12:50;;;;;;;8.30;2.20;;;27.00;99.90;;;;;;4990657;28;20035;-52
2022/09/09 03:15:16;;;;;;;7.00;2.03;;;27.00;99.90;;;;;;4992505;28;20076;-53
2022/09/09 03:17:42;;;;;;;12.35;2.90;;;26.90;99.90;;;;;;4992511;28;20296;-52
2022/09/09 03:20:08;;;;;;;7.55;1.58;;;26.80;99.90;;;;;;4992507;28;20026;-52
2022/09/09 03:22:35;;;;;;;6.53;1.50;;;26.70;99.90;;;;;;4991695;28;20022;-53
2022/09/09 03:25:02;;;;;;;4.43;1.35;;;26.70;99.90;;;;;;4992319;28;20030;-53
2022/09/09 03:27:28;;;;;;;2.08;0.90;;;26.60;99.90;;;;;;4992546;28;20065;-53
2022/09/09 03:29:55;;;;;;;5.38;1.45;;;26.70;99.90;;;;;;4992390;28;20034;-53
2022/09/09 03:32:25;;;;;;;2.10;0.90;;;26.80;99.90;;;;;;4990826;28;20042;-52
2022/09/09 03:34:52;;;;;;;3.55;0.98;;;26.90;99.90;;;;;;4992089;28;20026;-53
2022/09/09 03:37:19;;;;;;;3.63;0.70;;;27.00;99.90;;;;;;4992310;28;20045;-52
2022/09/09 03:39:45;;;;;;;5.80;1.15;;;27.10;99.90;;;;;;4991443;28;20113;-53
2022/09/09 03:42:18;;;;;;;5.22;1.33;;;27.10;99.90;;;;;;4992063;28;20116;-52
2022/09/09 03:44:46;;;;;;;9.82;1.95;;;27.30;99.90;;;;;;4991931;28;20088;-53
2022/09/09 03:47:13;;;;;;;6.85;2.13;;;27.30;99.90;;;;;;4992199;28;20027;-52
2022/09/09 03:49:38;;;;;;;11.13;2.75;;;27.20;99.90;;;;;;4991979;28;20390;-53
2022/09/09 03:52:04;;;;;;;10.57;2.95;;;27.10;99.90;;;;;;4991930;28;20034;-52
2022/09/09 03:54:30;;;;;;;13.57;2.90;;;27.00;99.90;;;;;;4992248;28;20512;-53
2022/09/09 03:56:56;;;;;;;15.73;3.33;;;26.90;99.90;;;;;;4992144;28;20023;-53
2022/09/09 03:59:22;;;;;;;8.80;2.63;;;26.70;99.90;;;;;;4991012;28;20030;-53
2022/09/09 04:01:48;;;;;;;13.27;3.30;;;26.60;99.90;;;;;;4992512;28;20034;-52
2022/09/09 04:04:14;;;;;;;9.15;2.53;;;26.30;99.90;;;;;;4991934;28;20494;-53
2022/09/09 04:06:40;;;;;;;12.27;3.30;;;26.20;99.90;;;;;;4990631;28;20023;-52
2022/09/09 04:09:05;;;;;;;19.63;4.13;;;26.10;99.90;;;;;;4991871;28;20058;-53
2022/09/09 04:11:31;;;;;;;12.25;2.92;;;26.00;99.90;;;;;;4991978;28;20050;-53
2022/09/09 04:13:57;;;;;;;9.25;3.08;;;25.80;99.90;;;;;;4991992;28;20050;-52
2022/09/09 04:16:22;;;;;;;14.95;3.17;;;25.70;99.90;;;;;;4991706;28;20026;-52
2022/09/09 04:18:48;;;;;;;10.13;3.13;;;25.60;99.90;;;;;;4990523;28;20492;-52
2022/09/09 04:21:15;;;;;;;11.55;3.95;;;25.50;99.90;;;;;;4990203;28;20045;-53
2022/09/09 04:23:42;;;;;;;16.30;3.25;;;25.50;99.90;;;;;;4991640;28;20494;-52
2022/09/09 04:26:08;;;;;;;13.80;3.13;;;25.40;99.90;;;;;;4991547;28;20037;-52
2022/09/09 04:28:35;;;;;;;13.77;3.40;;;25.40;99.90;;;;;;4991665;28;20025;-53
2022/09/09 04:31:09;;;;;;;7.72;3.45;;;25.30;99.90;;;;;;4991883;28;20038;-53
2022/09/09 04:33:35;;;;;;;15.15;4.72;;;25.20;99.90;;;;;;4991491;28;20061;-53
2022/09/09 04:36:01;;;;;;;9.45;3.47;;;25.20;99.90;;;;;;4991753;28;20529;-53
2022/09/09 04:38:27;;;;;;;15.57;3.78;;;25.20;99.90;;;;;;4991648;28;20109;-53
2022/09/09 04:40:53;;;;;;;9.52;3.92;;;25.10;99.90;;;;;;4990268;28;20370;-52
2022/09/09 04:43:20;;;;;;;10.90;3.65;;;25.10;99.90;;;;;;4991536;28;20109;-53
2022/09/09 04:45:53;;;;;;;11.15;3.30;;;25.00;99.90;;;;;;4991395;28;20026;-52
2022/09/09 04:48:20;;;;;;;16.85;4.38;;;25.00;99.90;;;;;;4991500;28;20113;-52
2022/09/09 04:51:01;;;;;;;10.77;3.97;;;25.00;99.90;;;;;;4993930;28;20473;-52
2022/09/09 04:53:27;;;;;;;19.85;4.70;;;24.90;99.90;;;;;;4995003;28;20046;-52
2022/09/09 04:56:05;;;;;;;10.05;4.05;;;24.90;99.90;;;;;;4994976;28;20044;-52
2022/09/09 04:58:31;;;;;;;12.10;3.65;;;24.80;99.90;;;;;;4995108;28;20053;-53
2022/09/09 05:01:08;;;;;;;13.13;3.85;;;24.80;99.90;;;;;;4994762;28;20103;-54
2022/09/09 05:03:34;;;;;;;16.73;4.05;;;24.80;99.90;;;;;;4995279;28;20480;-53
2022/09/09 05:06:04;;;;;;;14.45;4.60;;;24.70;99.90;;;;;;4994924;28;20034;-53
2022/09/09 05:08:29;;;;;;;14.63;4.47;;;24.70;99.90;;;;;;4994997;28;20027;-53
2022/09/09 05:10:55;;;;;;;14.07;4.20;;;24.60;99.90;;;;;;4994830;28;20033;-53
2022/09/09 05:13:22;;;;;;;14.70;5.30;;;24.60;99.90;;;;;;4994672;28;20117;-53
2022/09/09 05:15:53;;;;;;;22.95;5.97;;;24.60;99.90;;;;;;4994722;28;20030;-53
2022/09/09 05:18:18;;;;;;;17.90;5.30;;;24.50;99.90;;;;;;4994615;28;20034;-53
2022/09/09 05:20:44;;;;;;;24.13;6.20;;;24.50;99.90;;;;;;4993474;28;20548;-53
2022/09/09 05:23:13;;;;;;;14.25;5.00;;;24.50;99.90;;;;;;4994556;28;20386;-53
2022/09/09 05:25:41;;;;;;;16.85;4.38;;;24.40;99.90;;;;;;4994600;28;20034;-53
2022/09/09 05:28:07;;;;;;;15.48;5.47;;;24.40;99.90;;;;;;4994431;28;20041;-53
2022/09/09 05:30:34;;;;;;;15.45;6.18;;;24.40;99.90;;;;;;4994517;28;20025;-52
2022/09/09 05:33:00;;;;;;;13.68;5.25;;;24.30;99.90;;;;;;4994279;28;20097;-53
2022/09/09 05:35:26;;;;;;;17.58;6.80;;;24.40;99.90;;;;;;4994228;28;20667;-53
2022/09/09 05:37:52;;;;;;;13.60;5.53;;;24.30;99.90;;;;;;4994251;28;20386;-52
2022/09/09 05:40:18;;;;;;;16.42;5.78;;;24.30;99.90;;;;;;4994355;28;20038;-53
2022/09/09 05:42:44;;;;;;;16.55;6.25;;;24.30;99.90;;;;;;4994128;28;20035;-53
2022/09/09 05:45:10;;;;;;;14.57;6.47;;;24.30;99.90;;;;;;4994136;28;20031;-53
2022/09/09 05:47:37;;;;;;;24.70;7.60;;;24.30;99.90;;;;;;4994326;28;20022;-53
2022/09/09 05:50:04;;;;;;;19.35;6.07;;;24.20;99.90;;;;;;4994245;28;20041;-52
2022/09/09 05:52:29;;;;;;;14.48;5.50;;;24.30;99.90;;;;;;4994014;28;20038;-53
2022/09/09 05:54:56;;;;;;;13.90;5.78;;;24.30;99.90;;;;;;4994039;28;20508;-53
2022/09/09 05:57:22;;;;;;;21.00;6.28;;;24.30;99.90;;;;;;4993976;28;20030;-53
2022/09/09 05:59:49;;;;;;;19.52;7.15;;;24.30;99.90;;;;;;4993740;28;20101;-53
2022/09/09 06:02:15;;;;;;;14.57;4.70;;;24.40;99.90;;;;;;4993012;28;20019;-53
2022/09/09 06:04:41;;;;;;;16.48;5.45;;;24.30;99.90;;;;;;4993707;28;20850;-53
2022/09/09 06:07:07;;;;;;;14.82;6.75;;;24.40;99.90;;;;;;4993926;28;20027;-53
2022/09/09 06:09:33;;;;;;;16.05;6.03;;;24.40;99.90;;;;;;4992637;28;20421;-52
2022/09/09 06:11:59;;;;;;;14.90;5.90;;;24.50;99.90;;;;;;4993523;28;20038;-53
2022/09/09 06:14:27;;;;;;;19.25;6.63;;;24.50;99.90;;;;;;4992164;28;20064;-53
2022/09/09 06:16:53;;;;;;;23.65;5.75;;;24.60;99.90;;;;;;4993684;28;20434;-53
2022/09/09 06:19:20;;;;;;;16.90;5.40;;;24.60;99.90;;;;;;4993477;28;20105;-53
2022/09/09 06:21:47;;;;;;;20.55;6.10;;;24.70;99.90;;;;;;4993344;28;20045;-52
2022/09/09 06:24:13;;;;;;;16.70;6.38;;;24.70;99.90;;;;;;4993373;28;20493;-53
2022/09/09 06:26:42;;;;;;;19.00;4.85;;;24.70;99.90;;;;;;4993378;28;20037;-52
2022/09/09 06:29:10;;;;;;;16.15;5.60;;;24.70;99.90;;;;;;4993424;28;20505;-53
2022/09/09 06:31:37;;;;;;;15.98;5.53;;;24.80;99.90;;;;;;4993451;28;20030;-53
2022/09/09 06:34:06;;;;;;;15.60;4.88;;;24.80;99.90;;;;;;4993086;28;20030;-53
2022/09/09 06:36:34;;;;;;;18.13;5.57;;;24.90;99.90;;;;;;4993177;28;20161;-53
2022/09/09 06:39:00;;;;;;;17.02;4.45;;;24.90;99.90;;;;;;4991844;28;20042;-53
2022/09/09 06:41:28;;;;;;;13.05;4.38;;;25.00;99.90;;;;;;4993159;28;20106;-53
2022/09/09 06:43:57;;;;;;;11.90;5.20;;;25.00;99.90;;;;;;4992981;28;20129;-53
2022/09/09 06:46:27;;;;;;;12.60;3.85;;;25.00;99.90;;;;;;4992914;28;20037;-53
2022/09/09 06:48:58;;;;;;;10.50;3.40;;;25.00;99.90;;;;;;4992886;28;20061;-53
2022/09/09 06:51:33;;;;;;;17.25;5.47;;;25.00;99.90;;;;;;4992730;28;20108;-53
2022/09/09 06:54:02;;;;;;;13.73;3.78;;;25.10;99.90;;;;;;4992689;28;20130;-53
2022/09/09 06:56:41;;;;;;;17.55;4.70;;;25.10;99.90;;;;;;4992662;28;20041;-53
2022/09/09 06:59:09;;;;;;;16.10;3.75;;;25.20;99.90;;;;;;4991580;28;20375;-52
2022/09/09 07:01:37;;;;;;;17.05;4.43;;;25.20;99.90;;;;;;4992348;28;20054;-52
2022/09/09 07:04:07;;;;;;;14.80;4.35;;;25.30;99.90;;;;;;4992624;28;20116;-53
2022/09/09 07:06:35;;;;;;;12.38;4.57;;;25.30;99.90;;;;;;4992434;28;20018;-53
2022/09/09 07:09:06;;;;;;;11.35;4.70;;;25.30;99.90;;;;;;4992523;28;20030;-53
2022/09/09 07:11:37;;;;;;;20.77;4.65;;;25.30;99.90;;;;;;4992448;28;20545;-52
2022/09/09 07:14:03;;;;;;;14.07;5.35;;;25.30;99.90;;;;;;4992315;28;20026;-53
2022/09/09 07:16:31;;;;;;;19.15;6.85;;;25.30;99.90;;;;;;4992451;28;20073;-52
2022/09/09 07:18:57;;;;;;;;;;;25.30;99.90;;;;;;4992796;28;20113;-53
2022/09/09 07:21:26;;;;;;;22.17;6.23;;;25.30;99.90;;;;;;4992251;28;19910;-53
2022/09/09 07:23:52;;;;;;;12.48;3.53;;;25.40;99.90;;;;;;4992097;28;20264;-53
2022/09/09 07:26:20;;;;;;;17.50;5.82;;;25.40;99.90;;;;;;4992225;28;20072;-52
2022/09/09 07:28:46;;;;;;;16.48;4.53;;;25.40;99.90;;;;;;4992066;28;20034;-52
2022/09/09 07:31:32;;;;;;;9.02;3.80;;;25.40;99.90;;;;;;4992156;28;20022;-53
2022/09/09 07:33:59;;;;;;;16.33;3.95;;;25.50;99.90;;;;;;4991894;28;20034;-52
2022/09/09 07:36:27;;;;;;;22.60;4.07;;;25.60;99.90;;;;;;4990757;28;20041;-52
2022/09/09 07:39:05;;;;;;;17.10;4.97;;;25.60;99.90;;;;;;4992159;28;20457;-52
2022/09/09 07:41:37;;;;;;;18.20;6.07;;;25.60;99.90;;;;;;4992275;28;20043;-52
2022/09/09 07:44:08;;;;;;;13.30;3.00;;;25.70;99.90;;;;;;4991816;28;20038;-52
2022/09/09 07:46:35;;;;;;;11.75;2.88;;;25.70;99.90;;;;;;4991888;28;20033;-52
2022/09/09 07:49:02;;;;;;;16.70;4.50;;;25.70;99.90;;;;;;4992016;28;20395;-53
2022/09/09 07:51:33;;;;;;;19.67;4.35;;;25.80;99.90;;;;;;4991777;28;20019;-52
2022/09/09 07:54:01;;;;;;;13.98;4.88;;;25.80;99.90;;;;;;4991814;28;20058;-52
2022/09/09 07:56:29;;;;;;;13.48;3.90;;;25.80;99.90;;;;;;4991854;28;20549;-52
2022/09/09 07:58:56;;;;;;;15.07;4.20;;;25.90;99.90;;;;;;4991886;28;20026;-52
2022/09/09 08:01:28;;;;;;;17.25;4.63;;;25.90;99.90;;;;;;4991403;28;20039;-52
2022/09/09 08:04:07;;;;;;;13.27;4.68;;;26.00;99.90;;;;;;4991715;28;20061;-52
2022/09/09 08:06:38;;;;;;;12.52;4.15;;;26.10;99.90;;;;;;4991695;28;20023;-52
2022/09/09 08:09:04;;;;;;;14.63;4.13;;;26.10;99.90;;;;;;4990475;28;20512;-52
2022/09/09 08:11:32;;;;;;;14.85;4.28;;;26.20;99.90;;;;;;4991561;28;20027;-52
2022/09/09 08:13:58;;;;;;;19.90;6.05;;;26.20;99.90;;;;;;4991551;28;20050;-52
2022/09/09 08:16:30;;;;;;;10.82;4.32;;;26.30;99.90;;;;;;4991559;28;20027;-52
2022/09/09 08:18:56;;;;;;;18.92;3.90;;;26.30;99.90;;;;;;4991721;28;20490;-52
2022/09/09 08:21:26;;;;;;;13.02;4.47;;;26.40;99.90;;;;;;4991387;28;20061;-53
2022/09/09 08:23:53;;;;;;;11.48;3.63;;;26.40;99.90;;;;;;4991500;28;20031;-52
2022/09/09 08:26:23;;;;;;;10.60;3.10;;;26.40;99.90;;;;;;4995286;28;20401;-52
2022/09/09 08:28:53;;;;;;;17.20;4.00;;;26.50;99.90;;;;;;4995294;28;20030;-52
2022/09/09 08:31:28;;;;;;;13.68;4.03;;;26.50;99.90;;;;;;4995326;28;20031;-52
2022/09/09 08:33:55;;;;;;;14.85;4.28;;;26.60;99.90;;;;;;4995159;28;20492;-52
2022/09/09 08:36:22;;;;;;;10.45;3.80;;;26.70;99.90;;;;;;4995057;28;20070;-53
2022/09/09 08:38:50;;;;;;;14.80;4.22;;;26.70;99.90;;;;;;4995114;28;20681;-52
2022/09/09 08:41:34;;;;;;;16.67;5.32;;;26.70;99.90;;;;;;4995017;28;20204;-52
2022/09/09 08:44:34;;;;;;;15.82;5.57;;;26.70;99.90;;;;;;4995144;28;20034;-52
2022/09/09 08:47:32;;;;;;;10.73;3.38;;;26.70;99.90;;;;;;4995088;28;20053;-52
2022/09/09 08:50:24;;;;;;;15.20;7.45;;;26.70;99.90;;;;;;4994904;28;20041;-52
2022/09/09 08:52:56;;;;;;;16.60;4.85;;;26.80;99.90;;;;;;4994816;28;20031;-55
2022/09/09 08:55:28;;;;;;;13.15;3.67;;;26.80;99.90;;;;;;4994845;28;20382;-52
2022/09/09 08:57:57;;;;;;;11.90;3.72;;;26.90;99.90;;;;;;4994756;28;20553;-52
2022/09/09 09:00:27;;;;;;;11.73;3.80;;;26.90;99.90;;;;;;4994588;28;20051;-52
2022/09/09 09:03:19;;;;;;;16.33;6.13;;;27.00;99.90;;;;;;4994869;28;20026;-52
2022/09/09 09:06:00;;;;;;;15.27;4.18;;;27.00;99.90;;;;;;4994823;28;20379;-52
2022/09/09 09:08:37;;;;;;;13.52;3.42;;;27.10;99.90;;;;;;4993347;28;20034;-53
2022/09/09 09:11:05;;;;;;;8.73;4.07;;;27.10;99.90;;;;;;4994522;28;20450;-52
2022/09/09 09:14:17;;;;;;;12.48;3.67;;;27.10;99.90;;;;;;4994577;28;20097;-52
2022/09/09 09:17:12;;;;;;;17.02;4.47;;;27.20;99.90;;;;;;4974413;28;20390;-52
2022/09/09 09:19:40;;;;;;;20.65;4.57;;;27.20;99.90;;;;;;4994322;28;20525;-53
2022/09/09 09:22:19;;;;;;;15.75;5.45;;;27.30;99.90;;;;;;4994440;28;20034;-52
2022/09/09 09:24:55;;;;;;;16.95;6.15;;;27.40;99.90;;;;;;4994648;28;20141;-52
2022/09/09 09:27:26;;;;;;;15.00;4.43;;;27.40;99.90;;;;;;4994379;28;20033;-52
2022/09/09 09:29:56;;;;;;;17.80;6.93;;;27.50;99.90;;;;;;4994237;28;20050;-52
2022/09/09 09:32:24;;;;;;;12.27;4.22;;;27.50;99.90;;;;;;4992640;28;20490;-52
2022/09/09 09:34:55;;;;;;;13.60;3.60;;;27.60;99.90;;;;;;4993973;28;20386;-53
2022/09/09 09:37:34;;;;;;;13.95;3.42;;;27.70;99.90;;;;;;4992727;28;20030;-52
2022/09/09 09:40:18;;;;;;;12.38;3.47;;;27.70;99.90;;;;;;4993890;28;20166;-52
2022/09/09 09:42:53;;;;;;;12.85;4.75;;;27.70;99.90;;;;;;4994269;28;20525;-52
2022/09/09 09:45:43;;;;;;;18.17;5.25;;;27.70;99.90;;;;;;4968857;28;20033;-52
2022/09/09 09:48:11;;;;;;;12.35;4.63;;;27.80;99.90;;;;;;4955256;28;20121;-51
2022/09/09 09:51:00;;;;;;;9.02;3.03;;;27.90;99.90;;;;;;4955206;28;20019;-51
2022/09/09 09:53:29;;;;;;;11.70;3.80;;;27.90;99.90;;;;;;4960788;28;20046;-52
2022/09/09 09:56:09;;;;;;;13.38;3.85;;;28.00;99.90;;;;;;4959661;28;20035;-52
2022/09/09 09:58:44;;;;;;;10.38;3.22;;;28.10;99.90;;;;;;4960094;28;20037;-52
2022/09/09 10:01:33;;;;;;;18.08;3.15;;;28.10;99.90;;;;;;4974284;28;20050;-53
2022/09/09 10:04:14;;;;;;;12.52;3.53;;;28.20;99.90;;;;;;4971694;28;20055;-52
2022/09/09 10:06:40;;;;;;;11.43;3.00;;;28.30;99.90;;;;;;4969906;28;20027;-52
2022/09/09 10:09:26;;;;;;;13.13;2.80;;;28.30;99.90;;;;;;4973627;28;20490;-52
2022/09/09 10:12:14;;;;;;;10.57;2.28;;;28.30;99.90;;;;;;4969140;28;20038;-52
2022/09/09 10:14:58;;;;;;;14.55;2.75;;;28.40;99.90;;;;;;4965365;28;20027;-52
2022/09/09 10:17:34;;;;;;;19.23;12.13;;;28.40;99.90;;;;;;4966676;28;20082;-51
2022/09/09 10:20:41;;;;;;;7.65;2.88;;;28.50;99.90;;;;;;4973994;28;20062;-52
2022/09/09 10:23:25;;;;;;;10.68;2.47;;;28.50;99.90;;;;;;4951775;28;20082;-56
2022/09/09 10:25:53;;;;;;;13.20;4.78;;;28.60;99.90;;;;;;4973865;28;20137;-52
2022/09/09 10:28:40;;;;;;;13.77;2.80;;;28.70;99.90;;;;;;4970589;28;20118;-53
2022/09/09 10:31:31;;;;;;;7.68;1.83;;;28.70;99.90;;;;;;4968276;28;20031;-54
2022/09/09 10:34:16;;;;;;;7.70;3.33;;;28.70;99.90;;;;;;4968824;28;20613;-54
2022/09/09 10:36:48;;;;;;;11.95;2.97;;;28.70;99.90;;;;;;4972543;28;20299;-53
2022/09/09 10:39:32;;;;;;;10.25;3.58;;;28.80;99.90;;;;;;4966957;28;20105;-51
2022/09/09 10:42:06;;;;;;;8.43;3.60;;;28.90;99.90;;;;;;4968769;28;20034;-53
2022/09/09 10:44:50;;;;;;;11.02;4.80;;;28.90;99.90;;;;;;4979986;28;20092;-52
2022/09/09 10:47:41;;;;;;;8.55;2.40;;;29.00;99.90;;;;;;4967728;28;20474;-51
2022/09/09 10:50:26;;;;;;;14.45;2.67;;;29.00;99.90;;;;;;4972104;28;20037;-51
2022/09/09 10:53:16;;;;;;;12.90;2.20;;;29.10;99.90;;;;;;4954221;28;20043;-51
2022/09/09 10:55:50;;;;;;;18.02;2.30;;;29.10;99.90;;;;;;4969049;28;20106;-52
2022/09/09 10:58:23;;;;;;;7.30;2.00;;;29.10;99.90;;;;;;4971671;28;20169;-52
2022/09/09 11:00:54;;;;;;;9.20;2.25;;;29.20;99.90;;;;;;4967405;28;20054;-53
2022/09/09 11:03:26;;;;;;;7.45;2.25;;;29.20;99.90;;;;;;4970450;28;20125;-52
2022/09/09 11:06:12;;;;;;;10.95;2.28;;;29.30;99.90;;;;;;4966645;28;20023;-52
2022/09/09 11:08:39;;;;;;;10.05;1.83;;;29.40;99.90;;;;;;4968812;28;20035;-50
2022/09/09 11:11:11;;;;;;;10.13;2.33;;;29.50;99.90;;;;;;4968551;28;20462;-52
2022/09/09 11:14:10;;;;;;;11.55;2.30;;;29.50;99.90;;;;;;4970003;28;20063;-53
2022/09/09 11:16:53;;;;;;;10.02;2.42;;;29.60;99.90;;;;;;4947832;28;20031;-52
2022/09/09 11:19:41;;;;;;;10.95;1.70;;;29.70;99.90;;;;;;4969106;28;20039;-52
2022/09/09 11:22:14;;;;;;;9.85;2.75;;;29.70;99.90;;;;;;4970346;28;20495;-53
2022/09/09 11:24:45;;;;;;;9.50;2.08;;;29.70;99.90;;;;;;4968334;28;20592;-52
2022/09/09 11:27:30;;;;;;;13.85;3.42;;;29.80;99.90;;;;;;4970692;28;20105;-52
2022/09/09 11:30:14;;;;;;;9.90;2.78;;;29.80;99.90;;;;;;4969743;28;20035;-52
2022/09/09 11:32:49;;;;;;;9.60;2.38;;;29.90;99.90;;;;;;4967509;28;20031;-52
2022/09/09 11:35:38;;;;;;;7.53;2.42;;;29.80;99.90;;;;;;4968806;28;20030;-52
2022/09/09 11:38:27;;;;;;;9.68;2.58;;;29.90;99.90;;;;;;4969059;28;20031;-53
2022/09/09 11:41:02;;;;;;;7.82;2.72;;;29.80;99.90;;;;;;4969433;28;20037;-52
2022/09/09 11:43:38;;;;;;;8.85;2.33;;;29.70;99.90;;;;;;4969033;28;20086;-53
2022/09/09 11:46:04;;;;;;;9.43;3.75;;;29.70;99.90;;;;;;4969821;28;20098;-53
2022/09/09 11:48:44;;;;;;;8.88;2.28;;;29.80;99.90;;;;;;4970033;28;20062;-52
2022/09/09 11:51:13;;;;;;;9.25;2.97;;;29.80;99.90;;;;;;4969923;28;20026;-53
2022/09/09 11:54:02;;;;;;;11.77;2.72;;;29.90;99.90;;;;;;4969944;28;20045;-53
2022/09/09 11:56:43;;;;;;;8.45;2.20;;;29.90;99.90;;;;;;4967504;28;20646;-53
2022/09/09 11:59:31;;;;;;;9.38;3.20;;;30.00;99.90;;;;;;4969479;28;20041;-52
2022/09/09 12:02:13;;;;;;;12.68;4.63;;;30.10;99.90;;;;;;4969681;28;20405;-52
2022/09/09 12:04:50;;;;;;;9.05;2.35;;;30.10;99.90;;;;;;4969609;28;20057;-53
2022/09/09 12:07:25;;;;;;;5.18;2.20;;;30.20;99.90;;;;;;4969848;28;20035;-52
2022/09/09 12:10:02;;;;;;;7.85;2.55;;;30.20;99.90;;;;;;4963391;28;20031;-52
2022/09/09 12:12:35;;;;;;;10.97;2.63;;;30.10;99.90;;;;;;4964612;28;20039;-53
2022/09/09 12:15:07;;;;;;;7.97;2.45;;;30.10;99.90;;;;;;4969316;28;20415;-52
2022/09/09 12:17:44;;;;;;;8.02;2.15;;;30.10;99.90;;;;;;4968569;28;20050;-51
2022/09/09 12:20:14;;;;;;;17.88;2.80;;;30.10;99.90;;;;;;4969573;28;20093;-50
2022/09/09 12:23:05;;;;;;;8.23;2.63;;;30.10;99.90;;;;;;4969464;28;20031;-50
2022/09/09 12:25:53;;;;;;;13.63;2.67;;;30.20;99.90;;;;;;4965742;28;20039;-53
2022/09/09 12:28:24;;;;;;;8.43;2.80;;;30.10;99.90;;;;;;4967778;28;20427;-53
2022/09/09 12:30:58;;;;;;;9.15;3.78;;;30.20;99.90;;;;;;4966072;28;20066;-52
2022/09/09 12:33:24;;;;;;;7.82;2.65;;;30.20;99.90;;;;;;4969187;28;20133;-52
2022/09/09 12:36:00;;;;;;;9.40;2.67;;;30.30;99.90;;;;;;4969933;28;20454;-51
2022/09/09 12:38:41;;;;;;;8.52;2.10;;;30.30;99.90;;;;;;4967663;28;20403;-53
2022/09/09 12:41:28;;;;;;;11.40;2.72;;;30.30;99.90;;;;;;4962526;28;20038;-53
2022/09/09 12:44:10;;;;;;;6.00;2.40;;;30.40;99.90;;;;;;4965652;28;20337;-52
2022/09/09 12:46:41;;;;;;;6.00;2.08;;;30.30;99.90;;;;;;4969326;28;20041;-51
2022/09/09 12:49:34;;;;;;;8.00;2.30;;;30.30;99.90;;;;;;4967191;28;20031;-51
2022/09/09 12:52:21;;;;;;;11.52;2.95;;;30.30;99.90;;;;;;4967199;28;20090;-52
2022/09/09 12:54:47;;;;;;;4.90;2.15;;;30.30;99.90;;;;;;4963752;28;20502;-52
2022/09/09 12:57:14;;;;;;;6.32;1.80;;;30.30;99.90;;;;;;4965471;28;20034;-52
2022/09/09 12:59:44;;;;;;;7.47;2.90;;;30.30;99.90;;;;;;4970626;28;20090;-52
2022/09/09 13:02:22;;;;;;;9.10;2.28;;;30.30;99.90;;;;;;4967450;28;20561;-52
2022/09/09 13:04:50;;;;;;;13.00;3.15;;;30.30;99.90;;;;;;4968739;28;20360;-53
2022/09/09 13:07:16;;;;;;;8.68;2.33;;;30.30;99.90;;;;;;4970163;28;20528;-51
2022/09/09 13:09:44;;;;;;;9.93;3.22;;;30.30;99.90;;;;;;4966588;28;20127;-52
2022/09/09 13:12:20;;;;;;;;;;;30.30;99.90;;;;;;4974805;28;20070;-53